sensor_id;sensor_type;location;lat;lon;timestamp;pressure;altitude;pressure_sealevel;temperature;humidity
9439;BME280;5176;42.622;25.386;2023-03-15T00:01:14;96416.06;;;4.83;53.03
9439;BME280;5176;42.622;25.386;2023-03-15T00:03:46;96405.50;;;4.86;52.71
9439;BME280;5176;42.622;25.386;2023-03-15T00:06:15;96399.97;;;4.76;52.95
9439;BME280;5176;42.622;25.386;2023-03-15T00:08:44;96403.41;;;4.77;52.92
9439;BME280;5176;42.622;25.386;2023-03-15T00:11:14;96391.09;;;4.80;52.67
9439;BME280;5176;42.622;25.386;2023-03-15T00:13:44;96385.31;;;4.75;52.52
9439;BME280;5176;42.622;25.386;2023-03-15T00:16:13;96397.47;;;4.90;52.26
9439;BME280;5176;42.622;25.386;2023-03-15T00:18:43;96386.25;;;4.90;52.81
9439;BME280;5176;42.622;25.386;2023-03-15T00:21:14;96386.25;;;4.90;52.65
9439;BME280;5176;42.622;25.386;2023-03-15T00:23:43;96380.88;;;4.93;52.89
9439;BME280;5176;42.622;25.386;2023-03-15T00:26:12;96381.38;;;5.00;52.35
9439;BME280;5176;42.622;25.386;2023-03-15T00:28:41;96370.72;;;5.04;51.75
9439;BME280;5176;42.622;25.386;2023-03-15T00:31:13;96360.25;;;5.06;52.23
9439;BME280;5176;42.622;25.386;2023-03-15T00:33:42;96360.25;;;5.06;52.75
9439;BME280;5176;42.622;25.386;2023-03-15T00:36:11;96355.41;;;5.00;52.93
9439;BME280;5176;42.622;25.386;2023-03-15T00:38:42;96344.78;;;4.88;53.42
9439;BME280;5176;42.622;25.386;2023-03-15T00:41:13;96336.50;;;4.82;54.01
9439;BME280;5176;42.622;25.386;2023-03-15T00:43:43;96334.38;;;4.73;54.70
9439;BME280;5176;42.622;25.386;2023-03-15T00:46:14;96337.50;;;4.79;54.73
9439;BME280;5176;42.622;25.386;2023-03-15T00:48:47;96325.34;;;4.80;54.20
9439;BME280;5176;42.622;25.386;2023-03-15T00:51:18;96324.69;;;4.76;54.52
9439;BME280;5176;42.622;25.386;2023-03-15T00:53:50;96321.75;;;4.67;54.65
9439;BME280;5176;42.622;25.386;2023-03-15T00:56:21;96319.56;;;4.59;55.34
9439;BME280;5176;42.622;25.386;2023-03-15T00:58:51;96313.63;;;4.57;55.74
9439;BME280;5176;42.622;25.386;2023-03-15T01:01:22;96311.88;;;4.57;55.55
9439;BME280;5176;42.622;25.386;2023-03-15T01:03:51;96314.72;;;4.53;55.96
9439;BME280;5176;42.622;25.386;2023-03-15T01:06:21;96299.47;;;4.47;56.80
9439;BME280;5176;42.622;25.386;2023-03-15T01:08:52;96297.22;;;4.56;57.11
9439;BME280;5176;42.622;25.386;2023-03-15T01:11:23;96273.84;;;4.41;57.79
9439;BME280;5176;42.622;25.386;2023-03-15T01:13:54;96294.72;;;4.55;57.51
9439;BME280;5176;42.622;25.386;2023-03-15T01:16:23;96287.19;;;4.50;57.78
9439;BME280;5176;42.622;25.386;2023-03-15T01:18:52;96280.56;;;4.45;58.16
9439;BME280;5176;42.622;25.386;2023-03-15T01:21:22;96285.16;;;4.40;57.94
9439;BME280;5176;42.622;25.386;2023-03-15T01:23:53;96272.59;;;4.32;57.78
9439;BME280;5176;42.622;25.386;2023-03-15T01:26:22;96271.19;;;4.26;57.63
9439;BME280;5176;42.622;25.386;2023-03-15T01:28:51;96279.78;;;4.27;56.96
9439;BME280;5176;42.622;25.386;2023-03-15T01:31:23;96276.63;;;4.22;57.69
9439;BME280;5176;42.622;25.386;2023-03-15T01:33:52;96272.34;;;4.21;57.45
9439;BME280;5176;42.622;25.386;2023-03-15T01:36:21;96270.16;;;4.13;57.87
9439;BME280;5176;42.622;25.386;2023-03-15T01:38:53;96273.25;;;4.20;58.10
9439;BME280;5176;42.622;25.386;2023-03-15T01:41:22;96265.25;;;4.24;57.68
9439;BME280;5176;42.622;25.386;2023-03-15T01:43:52;96255.53;;;4.28;57.23
9439;BME280;5176;42.622;25.386;2023-03-15T01:46:23;96245.41;;;4.23;56.87
9439;BME280;5176;42.622;25.386;2023-03-15T01:48:56;96244.22;;;3.97;56.74
9439;BME280;5176;42.622;25.386;2023-03-15T01:51:32;96247.84;;;3.95;57.58
9439;BME280;5176;42.622;25.386;2023-03-15T01:54:07;96242.88;;;3.90;58.25
9439;BME280;5176;42.622;25.386;2023-03-15T01:56:39;96243.63;;;3.92;58.48
9439;BME280;5176;42.622;25.386;2023-03-15T01:59:13;96242.66;;;3.95;58.49
9439;BME280;5176;42.622;25.386;2023-03-15T02:01:43;96245.38;;;3.92;59.15
9439;BME280;5176;42.622;25.386;2023-03-15T02:04:15;96247.06;;;3.93;59.35
9439;BME280;5176;42.622;25.386;2023-03-15T02:06:46;96256.00;;;3.87;59.86
9439;BME280;5176;42.622;25.386;2023-03-15T02:09:18;96256.91;;;3.86;60.38
9439;BME280;5176;42.622;25.386;2023-03-15T02:11:48;96252.56;;;3.87;60.02
9439;BME280;5176;42.622;25.386;2023-03-15T02:14:17;96250.81;;;3.87;60.35
9439;BME280;5176;42.622;25.386;2023-03-15T02:16:45;96256.69;;;3.91;60.37
9439;BME280;5176;42.622;25.386;2023-03-15T02:19:27;96258.78;;;4.00;60.11
9439;BME280;5176;42.622;25.386;2023-03-15T02:22:09;96258.34;;;3.92;59.18
9439;BME280;5176;42.622;25.386;2023-03-15T02:24:49;96254.31;;;3.86;58.61
9439;BME280;5176;42.622;25.386;2023-03-15T02:27:26;96250.22;;;3.82;58.99
9439;BME280;5176;42.622;25.386;2023-03-15T02:29:56;96253.97;;;3.76;59.88
9439;BME280;5176;42.622;25.386;2023-03-15T02:32:26;96251.53;;;3.73;59.78
9439;BME280;5176;42.622;25.386;2023-03-15T02:34:55;96254.72;;;3.78;59.46
9439;BME280;5176;42.622;25.386;2023-03-15T02:37:23;96255.56;;;3.79;59.60
9439;BME280;5176;42.622;25.386;2023-03-15T02:39:52;96248.09;;;3.73;60.50
9439;BME280;5176;42.622;25.386;2023-03-15T02:42:23;96245.41;;;3.74;59.77
9439;BME280;5176;42.622;25.386;2023-03-15T02:44:53;96244.84;;;3.69;60.14
9439;BME280;5176;42.622;25.386;2023-03-15T02:47:26;96237.00;;;3.71;59.59
9439;BME280;5176;42.622;25.386;2023-03-15T02:49:55;96239.50;;;3.72;59.34
9439;BME280;5176;42.622;25.386;2023-03-15T02:52:24;96234.16;;;3.75;59.04
9439;BME280;5176;42.622;25.386;2023-03-15T02:54:52;96227.78;;;3.81;59.27
9439;BME280;5176;42.622;25.386;2023-03-15T02:57:23;96226.50;;;3.90;58.64
9439;BME280;5176;42.622;25.386;2023-03-15T02:59:51;96218.72;;;3.90;58.74
9439;BME280;5176;42.622;25.386;2023-03-15T03:02:21;96219.53;;;3.90;58.42
9439;BME280;5176;42.622;25.386;2023-03-15T03:04:49;96230.16;;;3.86;58.84
9439;BME280;5176;42.622;25.386;2023-03-15T03:07:19;96217.38;;;3.82;58.80
9439;BME280;5176;42.622;25.386;2023-03-15T03:09:48;96221.84;;;3.79;58.78
9439;BME280;5176;42.622;25.386;2023-03-15T03:12:17;96215.94;;;3.77;58.72
9439;BME280;5176;42.622;25.386;2023-03-15T03:14:52;96218.44;;;3.78;59.33
9439;BME280;5176;42.622;25.386;2023-03-15T03:17:23;96206.63;;;3.73;59.48
9439;BME280;5176;42.622;25.386;2023-03-15T03:19:51;96183.94;;;3.61;59.74
9439;BME280;5176;42.622;25.386;2023-03-15T03:22:21;96214.59;;;3.86;60.06
9439;BME280;5176;42.622;25.386;2023-03-15T03:24:50;96215.19;;;3.91;60.07
9439;BME280;5176;42.622;25.386;2023-03-15T03:27:19;96215.44;;;3.86;59.91
9439;BME280;5176;42.622;25.386;2023-03-15T03:29:51;96206.91;;;3.84;59.76
9439;BME280;5176;42.622;25.386;2023-03-15T03:32:20;96206.66;;;3.89;60.03
9439;BME280;5176;42.622;25.386;2023-03-15T03:34:49;96204.41;;;3.98;59.68
9439;BME280;5176;42.622;25.386;2023-03-15T03:37:19;96195.69;;;3.99;60.34
9439;BME280;5176;42.622;25.386;2023-03-15T03:39:47;96197.03;;;4.06;60.23
9439;BME280;5176;42.622;25.386;2023-03-15T03:42:16;96200.66;;;4.04;60.80
9439;BME280;5176;42.622;25.386;2023-03-15T03:44:45;96206.91;;;4.00;60.97
9439;BME280;5176;42.622;25.386;2023-03-15T03:47:15;96204.25;;;4.01;61.19
9439;BME280;5176;42.622;25.386;2023-03-15T03:49:44;96204.06;;;4.04;60.94
9439;BME280;5176;42.622;25.386;2023-03-15T03:52:13;96202.06;;;4.09;60.82
9439;BME280;5176;42.622;25.386;2023-03-15T03:54:41;96206.34;;;4.10;60.86
9439;BME280;5176;42.622;25.386;2023-03-15T03:57:10;96207.84;;;4.15;60.80
9439;BME280;5176;42.622;25.386;2023-03-15T03:59:41;96205.25;;;4.15;60.05
9439;BME280;5176;42.622;25.386;2023-03-15T04:02:10;96211.78;;;4.22;59.96
9439;BME280;5176;42.622;25.386;2023-03-15T04:04:40;96211.00;;;4.20;59.26
9439;BME280;5176;42.622;25.386;2023-03-15T04:07:09;96209.25;;;4.20;59.32
9439;BME280;5176;42.622;25.386;2023-03-15T04:09:38;96213.59;;;4.20;59.62
9439;BME280;5176;42.622;25.386;2023-03-15T04:12:08;96202.72;;;4.13;59.59
9439;BME280;5176;42.622;25.386;2023-03-15T04:14:35;96207.09;;;4.13;59.85
9439;BME280;5176;42.622;25.386;2023-03-15T04:17:04;96208.50;;;4.18;59.92
9439;BME280;5176;42.622;25.386;2023-03-15T04:19:34;96202.91;;;4.10;60.57
9439;BME280;5176;42.622;25.386;2023-03-15T04:22:05;96205.41;;;4.12;60.73
9439;BME280;5176;42.622;25.386;2023-03-15T04:24:34;96200.56;;;4.05;61.59
9439;BME280;5176;42.622;25.386;2023-03-15T04:27:05;96201.66;;;4.01;61.77
9439;BME280;5176;42.622;25.386;2023-03-15T04:29:35;96206.75;;;4.03;62.03
9439;BME280;5176;42.622;25.386;2023-03-15T04:32:05;96210.19;;;4.03;61.95
9439;BME280;5176;42.622;25.386;2023-03-15T04:34:34;96216.34;;;4.01;62.55
9439;BME280;5176;42.622;25.386;2023-03-15T04:37:06;96214.88;;;3.97;62.58
9439;BME280;5176;42.622;25.386;2023-03-15T04:39:34;96220.66;;;4.02;62.80
9439;BME280;5176;42.622;25.386;2023-03-15T04:42:05;96212.59;;;4.06;62.28
9439;BME280;5176;42.622;25.386;2023-03-15T04:44:34;96212.88;;;4.02;63.38
9439;BME280;5176;42.622;25.386;2023-03-15T04:47:03;96215.97;;;4.08;63.03
9439;BME280;5176;42.622;25.386;2023-03-15T04:49:32;96207.50;;;4.05;64.45
9439;BME280;5176;42.622;25.386;2023-03-15T04:52:01;96219.72;;;4.03;65.48
9439;BME280;5176;42.622;25.386;2023-03-15T04:54:32;96208.53;;;4.02;66.47
9439;BME280;5176;42.622;25.386;2023-03-15T04:57:01;96210.84;;;4.07;66.81
9439;BME280;5176;42.622;25.386;2023-03-15T04:59:30;96202.50;;;4.02;67.28
9439;BME280;5176;42.622;25.386;2023-03-15T05:01:59;96192.19;;;4.00;67.91
9439;BME280;5176;42.622;25.386;2023-03-15T05:04:28;96200.97;;;3.98;69.06
9439;BME280;5176;42.622;25.386;2023-03-15T05:06:57;96187.94;;;3.99;69.38
9439;BME280;5176;42.622;25.386;2023-03-15T05:09:25;96190.94;;;3.92;69.95
9439;BME280;5176;42.622;25.386;2023-03-15T05:11:55;96197.38;;;3.85;70.99
9439;BME280;5176;42.622;25.386;2023-03-15T05:14:24;96189.00;;;3.79;71.75
9439;BME280;5176;42.622;25.386;2023-03-15T05:16:53;96191.78;;;3.76;71.92
9439;BME280;5176;42.622;25.386;2023-03-15T05:19:24;96196.69;;;3.81;72.19
9439;BME280;5176;42.622;25.386;2023-03-15T05:21:53;96199.63;;;3.91;71.51
9439;BME280;5176;42.622;25.386;2023-03-15T05:24:22;96198.56;;;3.95;70.82
9439;BME280;5176;42.622;25.386;2023-03-15T05:26:51;96193.88;;;4.01;70.85
9439;BME280;5176;42.622;25.386;2023-03-15T05:29:23;96194.63;;;4.03;69.63
9439;BME280;5176;42.622;25.386;2023-03-15T05:31:52;96183.84;;;3.95;69.97
9439;BME280;5176;42.622;25.386;2023-03-15T05:34:21;96185.00;;;4.05;70.32
9439;BME280;5176;42.622;25.386;2023-03-15T05:36:51;96175.28;;;3.93;69.60
9439;BME280;5176;42.622;25.386;2023-03-15T05:39:19;96171.13;;;3.91;69.97
9439;BME280;5176;42.622;25.386;2023-03-15T05:41:48;96173.63;;;3.92;69.02
9439;BME280;5176;42.622;25.386;2023-03-15T05:44:17;96164.69;;;3.98;69.12
9439;BME280;5176;42.622;25.386;2023-03-15T05:46:48;96164.09;;;4.08;69.29
9439;BME280;5176;42.622;25.386;2023-03-15T05:49:17;96159.41;;;4.15;67.81
9439;BME280;5176;42.622;25.386;2023-03-15T05:51:47;96165.09;;;4.22;67.03
9439;BME280;5176;42.622;25.386;2023-03-15T05:54:16;96160.13;;;4.33;67.43
9439;BME280;5176;42.622;25.386;2023-03-15T05:56:44;96168.16;;;4.44;66.23
9439;BME280;5176;42.622;25.386;2023-03-15T05:59:14;96185.03;;;4.51;66.02
9439;BME280;5176;42.622;25.386;2023-03-15T06:01:42;96174.97;;;4.61;65.09
9439;BME280;5176;42.622;25.386;2023-03-15T06:04:13;96182.59;;;4.64;64.43
9439;BME280;5176;42.622;25.386;2023-03-15T06:06:42;96184.75;;;4.72;64.40
9439;BME280;5176;42.622;25.386;2023-03-15T06:09:10;96184.84;;;4.70;64.69
9439;BME280;5176;42.622;25.386;2023-03-15T06:11:39;96185.31;;;4.77;64.29
9439;BME280;5176;42.622;25.386;2023-03-15T06:14:08;96191.50;;;4.90;64.19
9439;BME280;5176;42.622;25.386;2023-03-15T06:16:37;96200.00;;;4.92;63.58
9439;BME280;5176;42.622;25.386;2023-03-15T06:19:06;96201.88;;;4.90;63.80
9439;BME280;5176;42.622;25.386;2023-03-15T06:21:36;96199.47;;;5.01;63.42
9439;BME280;5176;42.622;25.386;2023-03-15T06:24:06;96202.00;;;5.03;63.05
9439;BME280;5176;42.622;25.386;2023-03-15T06:26:35;96197.53;;;5.05;62.96
9439;BME280;5176;42.622;25.386;2023-03-15T06:29:03;96200.53;;;5.13;63.45
9439;BME280;5176;42.622;25.386;2023-03-15T06:31:33;96196.28;;;5.26;63.61
9439;BME280;5176;42.622;25.386;2023-03-15T06:34:02;96192.75;;;5.41;63.60
9439;BME280;5176;42.622;25.386;2023-03-15T06:36:31;96183.50;;;5.52;63.11
9439;BME280;5176;42.622;25.386;2023-03-15T06:39:02;96190.66;;;5.62;62.99
9439;BME280;5176;42.622;25.386;2023-03-15T06:41:31;96197.16;;;5.69;62.87
9439;BME280;5176;42.622;25.386;2023-03-15T06:44:00;96197.13;;;5.84;62.31
9439;BME280;5176;42.622;25.386;2023-03-15T06:46:29;96189.91;;;5.89;61.73
9439;BME280;5176;42.622;25.386;2023-03-15T06:48:59;96189.06;;;6.03;61.93
9439;BME280;5176;42.622;25.386;2023-03-15T06:51:28;96189.41;;;6.11;62.32
9439;BME280;5176;42.622;25.386;2023-03-15T06:53:57;96188.72;;;6.21;62.53
9439;BME280;5176;42.622;25.386;2023-03-15T06:56:27;96184.53;;;6.33;61.74
9439;BME280;5176;42.622;25.386;2023-03-15T06:58:56;96180.09;;;6.21;62.78
9439;BME280;5176;42.622;25.386;2023-03-15T07:01:25;96188.72;;;6.21;63.04
9439;BME280;5176;42.622;25.386;2023-03-15T07:03:56;96190.69;;;6.18;63.28
9439;BME280;5176;42.622;25.386;2023-03-15T07:06:25;96186.22;;;6.20;63.85
9439;BME280;5176;42.622;25.386;2023-03-15T07:08:55;96183.06;;;6.29;63.53
9439;BME280;5176;42.622;25.386;2023-03-15T07:11:23;96176.59;;;6.35;63.73
9439;BME280;5176;42.622;25.386;2023-03-15T07:13:54;96182.13;;;6.30;62.98
9439;BME280;5176;42.622;25.386;2023-03-15T07:16:24;96187.47;;;6.41;62.84
9439;BME280;5176;42.622;25.386;2023-03-15T07:18:53;96186.06;;;6.50;62.15
9439;BME280;5176;42.622;25.386;2023-03-15T07:21:22;96180.97;;;6.61;62.76
9439;BME280;5176;42.622;25.386;2023-03-15T07:23:51;96171.53;;;6.73;61.09
9439;BME280;5176;42.622;25.386;2023-03-15T07:26:20;96173.53;;;6.82;60.79
9439;BME280;5176;42.622;25.386;2023-03-15T07:28:49;96158.34;;;7.01;60.39
9439;BME280;5176;42.622;25.386;2023-03-15T07:31:19;96156.31;;;7.32;59.64
9439;BME280;5176;42.622;25.386;2023-03-15T07:33:49;96160.28;;;7.37;59.29
9439;BME280;5176;42.622;25.386;2023-03-15T07:36:17;96165.78;;;7.46;59.60
9439;BME280;5176;42.622;25.386;2023-03-15T07:38:48;96153.28;;;7.63;59.17
9439;BME280;5176;42.622;25.386;2023-03-15T07:41:17;96160.56;;;7.71;58.89
9439;BME280;5176;42.622;25.386;2023-03-15T07:43:46;96145.44;;;7.76;58.95
9439;BME280;5176;42.622;25.386;2023-03-15T07:46:15;96158.63;;;7.99;58.13
9439;BME280;5176;42.622;25.386;2023-03-15T07:48:45;96149.88;;;8.24;58.30
9439;BME280;5176;42.622;25.386;2023-03-15T07:51:14;96154.88;;;8.39;57.54
9439;BME280;5176;42.622;25.386;2023-03-15T07:53:43;96139.91;;;8.41;57.07
9439;BME280;5176;42.622;25.386;2023-03-15T07:56:14;96138.03;;;8.43;57.18
9439;BME280;5176;42.622;25.386;2023-03-15T07:58:43;96147.56;;;8.56;57.24
9439;BME280;5176;42.622;25.386;2023-03-15T08:01:12;96132.47;;;8.72;56.64
9439;BME280;5176;42.622;25.386;2023-03-15T08:03:40;96135.28;;;9.04;55.67
9439;BME280;5176;42.622;25.386;2023-03-15T08:06:11;96135.34;;;9.38;55.30
9439;BME280;5176;42.622;25.386;2023-03-15T08:08:40;96141.56;;;9.70;53.71
9439;BME280;5176;42.622;25.386;2023-03-15T08:11:09;96147.81;;;10.01;52.38
9439;BME280;5176;42.622;25.386;2023-03-15T08:13:38;96148.19;;;9.74;52.98
9439;BME280;5176;42.622;25.386;2023-03-15T08:16:07;96144.38;;;10.01;53.08
9439;BME280;5176;42.622;25.386;2023-03-15T08:18:36;96136.25;;;10.15;52.46
9439;BME280;5176;42.622;25.386;2023-03-15T08:21:05;96127.44;;;10.16;51.83
9439;BME280;5176;42.622;25.386;2023-03-15T08:23:36;96132.34;;;10.09;52.78
9439;BME280;5176;42.622;25.386;2023-03-15T08:26:05;96122.19;;;10.16;52.70
9439;BME280;5176;42.622;25.386;2023-03-15T08:28:33;96113.41;;;10.28;51.99
9439;BME280;5176;42.622;25.386;2023-03-15T08:31:05;96108.47;;;10.46;52.42
9439;BME280;5176;42.622;25.386;2023-03-15T08:33:35;96103.75;;;10.61;51.48
9439;BME280;5176;42.622;25.386;2023-03-15T08:36:04;96107.47;;;10.90;50.87
9439;BME280;5176;42.622;25.386;2023-03-15T08:38:35;96110.13;;;10.79;49.94
9439;BME280;5176;42.622;25.386;2023-03-15T08:41:04;96108.53;;;10.88;50.43
9439;BME280;5176;42.622;25.386;2023-03-15T08:43:34;96098.34;;;10.95;50.05
9439;BME280;5176;42.622;25.386;2023-03-15T08:46:04;96099.31;;;10.73;50.01
9439;BME280;5176;42.622;25.386;2023-03-15T08:48:33;96085.41;;;10.61;50.08
9439;BME280;5176;42.622;25.386;2023-03-15T08:51:02;96091.28;;;10.53;50.31
9439;BME280;5176;42.622;25.386;2023-03-15T08:53:31;96078.31;;;10.52;50.61
9439;BME280;5176;42.622;25.386;2023-03-15T08:56:02;96087.22;;;10.81;50.29
9439;BME280;5176;42.622;25.386;2023-03-15T08:58:31;96077.78;;;11.11;50.03
9439;BME280;5176;42.622;25.386;2023-03-15T09:01:00;96065.47;;;11.32;48.65
9439;BME280;5176;42.622;25.386;2023-03-15T09:03:31;96053.72;;;11.67;47.70
9439;BME280;5176;42.622;25.386;2023-03-15T09:06:00;96046.38;;;12.30;47.15
9439;BME280;5176;42.622;25.386;2023-03-15T09:08:29;96047.38;;;12.48;45.00
9439;BME280;5176;42.622;25.386;2023-03-15T09:11:01;96037.28;;;12.24;44.25
9439;BME280;5176;42.622;25.386;2023-03-15T09:13:30;96029.63;;;11.92;44.63
9439;BME280;5176;42.622;25.386;2023-03-15T09:16:01;96042.97;;;11.80;44.62
9439;BME280;5176;42.622;25.386;2023-03-15T09:18:30;96036.78;;;11.81;44.75
9439;BME280;5176;42.622;25.386;2023-03-15T09:21:00;96036.97;;;11.98;44.31
9439;BME280;5176;42.622;25.386;2023-03-15T09:23:28;96039.78;;;12.26;43.81
9439;BME280;5176;42.622;25.386;2023-03-15T09:25:57;96036.84;;;12.48;44.11
9439;BME280;5176;42.622;25.386;2023-03-15T09:28:28;96042.66;;;12.62;43.38
9439;BME280;5176;42.622;25.386;2023-03-15T09:30:57;96033.91;;;12.90;43.40
9439;BME280;5176;42.622;25.386;2023-03-15T09:33:27;96033.34;;;12.96;42.38
9439;BME280;5176;42.622;25.386;2023-03-15T09:35:56;96029.50;;;12.91;42.94
9439;BME280;5176;42.622;25.386;2023-03-15T09:38:26;96025.34;;;12.98;42.80
9439;BME280;5176;42.622;25.386;2023-03-15T09:40:58;96016.41;;;13.28;42.45
9439;BME280;5176;42.622;25.386;2023-03-15T09:43:50;96022.41;;;13.48;41.49
9439;BME280;5176;42.622;25.386;2023-03-15T09:46:26;96014.31;;;13.31;41.60
9439;BME280;5176;42.622;25.386;2023-03-15T09:49:02;96019.47;;;13.14;42.15
9439;BME280;5176;42.622;25.386;2023-03-15T09:51:38;96015.25;;;13.40;42.29
9439;BME280;5176;42.622;25.386;2023-03-15T09:54:10;96011.06;;;13.75;41.12
9439;BME280;5176;42.622;25.386;2023-03-15T09:56:47;96011.50;;;14.15;40.32
9439;BME280;5176;42.622;25.386;2023-03-15T09:59:19;96015.63;;;14.00;40.20
9439;BME280;5176;42.622;25.386;2023-03-15T10:01:51;96020.31;;;14.06;40.61
9439;BME280;5176;42.622;25.386;2023-03-15T10:04:27;96021.56;;;14.02;40.38
9439;BME280;5176;42.622;25.386;2023-03-15T10:06:57;96007.09;;;14.52;40.25
9439;BME280;5176;42.622;25.386;2023-03-15T10:09:29;96009.47;;;14.45;39.83
9439;BME280;5176;42.622;25.386;2023-03-15T10:12:05;96006.97;;;14.43;39.51
9439;BME280;5176;42.622;25.386;2023-03-15T10:15:05;96002.09;;;14.49;39.82
9439;BME280;5176;42.622;25.386;2023-03-15T10:17:45;95998.31;;;14.33;39.79
9439;BME280;5176;42.622;25.386;2023-03-15T10:20:18;95992.16;;;14.25;39.18
9439;BME280;5176;42.622;25.386;2023-03-15T10:22:55;95996.34;;;14.17;39.46
9439;BME280;5176;42.622;25.386;2023-03-15T10:25:26;95998.25;;;14.25;39.50
9439;BME280;5176;42.622;25.386;2023-03-15T10:27:59;95997.28;;;14.26;39.88
9439;BME280;5176;42.622;25.386;2023-03-15T10:30:32;95988.16;;;14.21;40.23
9439;BME280;5176;42.622;25.386;2023-03-15T10:33:03;95984.84;;;14.54;40.54
9439;BME280;5176;42.622;25.386;2023-03-15T10:35:34;95968.50;;;14.51;39.43
9439;BME280;5176;42.622;25.386;2023-03-15T10:38:13;95977.75;;;14.37;39.35
9439;BME280;5176;42.622;25.386;2023-03-15T10:40:44;95964.66;;;14.45;39.33
9439;BME280;5176;42.622;25.386;2023-03-15T10:43:17;95957.88;;;14.60;39.25
9439;BME280;5176;42.622;25.386;2023-03-15T10:45:57;95958.31;;;14.56;39.59
9439;BME280;5176;42.622;25.386;2023-03-15T10:48:27;95969.13;;;14.70;39.16
9439;BME280;5176;42.622;25.386;2023-03-15T10:50:56;95967.22;;;14.55;38.83
9439;BME280;5176;42.622;25.386;2023-03-15T10:53:24;95965.22;;;14.75;39.06
9439;BME280;5176;42.622;25.386;2023-03-15T10:56:00;95955.81;;;14.98;38.35
9439;BME280;5176;42.622;25.386;2023-03-15T10:58:39;95950.44;;;15.08;38.19
9439;BME280;5176;42.622;25.386;2023-03-15T11:01:13;95946.34;;;14.87;39.30
9439;BME280;5176;42.622;25.386;2023-03-15T11:04:00;95937.81;;;14.67;39.03
9439;BME280;5176;42.622;25.386;2023-03-15T11:06:39;95935.53;;;14.73;39.05
9439;BME280;5176;42.622;25.386;2023-03-15T11:09:10;95934.31;;;14.85;39.02
9439;BME280;5176;42.622;25.386;2023-03-15T11:11:57;95930.56;;;14.69;39.21
9439;BME280;5176;42.622;25.386;2023-03-15T11:14:33;95932.53;;;14.67;38.46
9439;BME280;5176;42.622;25.386;2023-03-15T11:17:07;95930.97;;;14.57;39.66
9439;BME280;5176;42.622;25.386;2023-03-15T11:19:39;95930.06;;;14.66;40.03
9439;BME280;5176;42.622;25.386;2023-03-15T11:22:11;95922.59;;;14.43;39.56
9439;BME280;5176;42.622;25.386;2023-03-15T11:24:41;95917.75;;;14.49;39.85
9439;BME280;5176;42.622;25.386;2023-03-15T11:27:12;95920.75;;;14.54;39.87
9439;BME280;5176;42.622;25.386;2023-03-15T11:29:44;95913.34;;;14.57;39.45
9439;BME280;5176;42.622;25.386;2023-03-15T11:32:18;95915.94;;;14.49;39.75
9439;BME280;5176;42.622;25.386;2023-03-15T11:34:54;95921.56;;;14.36;40.15
9439;BME280;5176;42.622;25.386;2023-03-15T11:37:27;95917.66;;;14.23;40.73
9439;BME280;5176;42.622;25.386;2023-03-15T11:40:04;95919.53;;;14.30;40.50
9439;BME280;5176;42.622;25.386;2023-03-15T11:42:45;95921.06;;;14.15;40.67
9439;BME280;5176;42.622;25.386;2023-03-15T11:45:19;95916.13;;;14.12;40.59
9439;BME280;5176;42.622;25.386;2023-03-15T11:47:55;95908.44;;;14.01;41.36
9439;BME280;5176;42.622;25.386;2023-03-15T11:50:25;95912.22;;;13.98;40.85
9439;BME280;5176;42.622;25.386;2023-03-15T11:52:54;95909.69;;;13.97;41.04
9439;BME280;5176;42.622;25.386;2023-03-15T11:55:29;95907.00;;;14.06;40.75
9439;BME280;5176;42.622;25.386;2023-03-15T11:58:28;95897.28;;;14.07;40.81
9439;BME280;5176;42.622;25.386;2023-03-15T12:01:02;95891.56;;;14.11;40.53
9439;BME280;5176;42.622;25.386;2023-03-15T12:03:36;95887.34;;;14.01;40.64
9439;BME280;5176;42.622;25.386;2023-03-15T12:06:11;95880.59;;;13.98;41.00
9439;BME280;5176;42.622;25.386;2023-03-15T12:08:43;95886.91;;;13.87;40.87
9439;BME280;5176;42.622;25.386;2023-03-15T12:11:13;95880.75;;;13.79;41.04
9439;BME280;5176;42.622;25.386;2023-03-15T12:14:25;95887.81;;;13.60;41.69
9439;BME280;5176;42.622;25.386;2023-03-15T12:20:07;95871.72;;;13.81;41.37
9439;BME280;5176;42.622;25.386;2023-03-15T12:22:42;95879.31;;;13.84;41.30
9439;BME280;5176;42.622;25.386;2023-03-15T12:25:14;95876.38;;;14.05;40.93
9439;BME280;5176;42.622;25.386;2023-03-15T12:27:46;95879.34;;;14.28;40.53
9439;BME280;5176;42.622;25.386;2023-03-15T12:30:20;95875.78;;;14.37;40.09
9439;BME280;5176;42.622;25.386;2023-03-15T12:32:52;95867.94;;;14.45;39.80
9439;BME280;5176;42.622;25.386;2023-03-15T12:35:28;95872.31;;;14.37;40.00
9439;BME280;5176;42.622;25.386;2023-03-15T12:37:58;95868.63;;;14.30;40.26
9439;BME280;5176;42.622;25.386;2023-03-15T12:40:47;95863.91;;;14.33;40.43
9439;BME280;5176;42.622;25.386;2023-03-15T12:43:41;95864.78;;;14.42;40.37
9439;BME280;5176;42.622;25.386;2023-03-15T12:46:53;95866.28;;;14.44;40.46
9439;BME280;5176;42.622;25.386;2023-03-15T12:49:35;95856.09;;;14.50;40.32
9439;BME280;5176;42.622;25.386;2023-03-15T12:52:24;95866.00;;;14.48;40.13
9439;BME280;5176;42.622;25.386;2023-03-15T12:55:00;95866.06;;;14.38;40.35
9439;BME280;5176;42.622;25.386;2023-03-15T12:57:37;95871.47;;;14.36;40.22
9439;BME280;5176;42.622;25.386;2023-03-15T13:00:12;95872.00;;;14.40;40.31
9439;BME280;5176;42.622;25.386;2023-03-15T13:02:44;95875.16;;;14.43;40.22
9439;BME280;5176;42.622;25.386;2023-03-15T13:05:18;95869.81;;;14.53;39.89
9439;BME280;5176;42.622;25.386;2023-03-15T13:08:04;95870.41;;;14.65;39.47
9439;BME280;5176;42.622;25.386;2023-03-15T13:10:37;95862.97;;;14.68;39.60
9439;BME280;5176;42.622;25.386;2023-03-15T13:13:36;95865.47;;;14.70;39.44
9439;BME280;5176;42.622;25.386;2023-03-15T13:16:27;95876.75;;;14.54;39.56
9439;BME280;5176;42.622;25.386;2023-03-15T13:19:03;95866.88;;;14.56;39.73
9439;BME280;5176;42.622;25.386;2023-03-15T13:21:39;95867.03;;;14.55;39.49
9439;BME280;5176;42.622;25.386;2023-03-15T13:24:21;95866.06;;;14.64;39.61
9439;BME280;5176;42.622;25.386;2023-03-15T13:26:55;95853.91;;;14.71;39.51
9439;BME280;5176;42.622;25.386;2023-03-15T13:29:27;95849.53;;;14.80;39.22
9439;BME280;5176;42.622;25.386;2023-03-15T13:32:11;95856.88;;;14.68;39.44
9439;BME280;5176;42.622;25.386;2023-03-15T13:34:43;95856.25;;;14.74;39.23
9439;BME280;5176;42.622;25.386;2023-03-15T13:37:14;95859.13;;;14.55;39.76
9439;BME280;5176;42.622;25.386;2023-03-15T13:39:55;95854.69;;;14.37;39.76
9439;BME280;5176;42.622;25.386;2023-03-15T13:42:25;95857.31;;;14.37;40.23
9439;BME280;5176;42.622;25.386;2023-03-15T13:45:18;95861.09;;;14.53;39.74